createdAt,value
2022-12-25T00:00:21.535Z,86.20
2022-12-25T00:03:26.286Z,86.03
2022-12-25T00:06:31.030Z,86.07
2022-12-25T00:09:35.633Z,85.80
2022-12-25T00:12:40.304Z,85.92
2022-12-25T00:15:44.873Z,85.97
2022-12-25T00:18:49.788Z,86.02
2022-12-25T00:21:54.373Z,85.95
2022-12-25T00:24:58.842Z,86.03
2022-12-25T00:28:03.272Z,86.17
2022-12-25T00:31:08.817Z,86.15
2022-12-25T00:34:13.393Z,86.22
2022-12-25T00:37:17.872Z,86.52
2022-12-25T00:40:22.390Z,86.50
2022-12-25T00:43:26.976Z,86.49
2022-12-25T00:46:31.563Z,86.59
2022-12-25T00:49:36.070Z,86.35
2022-12-25T00:52:40.762Z,86.17
2022-12-25T00:55:45.264Z,86.37
2022-12-25T00:58:49.781Z,86.38
2022-12-25T01:01:54.372Z,86.51
2022-12-25T01:04:59.059Z,86.70
2022-12-25T01:08:03.605Z,86.85
2022-12-25T01:11:08.908Z,86.85
2022-12-25T01:14:13.461Z,86.61
2022-12-25T01:17:18.074Z,86.48
2022-12-25T01:20:22.597Z,86.63
2022-12-25T01:23:27.095Z,86.78
2022-12-25T01:26:31.752Z,86.59
2022-12-25T01:29:36.366Z,86.63
2022-12-25T01:32:40.999Z,86.66
2022-12-25T01:35:45.481Z,86.68
2022-12-25T01:38:50.439Z,86.56
2022-12-25T01:41:55.024Z,86.24
2022-12-25T01:45:22.357Z,86.04
2022-12-25T01:48:29.128Z,86.38
2022-12-25T01:51:36.599Z,86.61
2022-12-25T01:54:42.615Z,86.60
2022-12-25T01:57:47.547Z,86.53
2022-12-25T02:00:52.521Z,86.53
2022-12-25T02:04:00.835Z,86.61
2022-12-25T02:07:05.596Z,86.53
2022-12-25T02:10:12.167Z,86.36
2022-12-25T02:13:18.430Z,86.37
2022-12-25T02:16:25.460Z,86.36
2022-12-25T02:19:38.557Z,86.41
2022-12-25T02:22:51.637Z,86.67
2022-12-25T02:26:03.911Z,86.39
2022-12-25T02:29:11.586Z,86.34
2022-12-25T02:32:19.472Z,86.44
2022-12-25T02:35:28.252Z,86.57
2022-12-25T02:38:34.592Z,86.42
2022-12-25T02:41:41.184Z,86.35
2022-12-25T02:45:04.823Z,86.36
2022-12-25T02:48:23.783Z,86.43
2022-12-25T02:51:47.870Z,86.42
2022-12-25T02:55:12.162Z,86.78
2022-12-25T02:58:35.722Z,86.75
2022-12-25T03:01:58.153Z,86.64
2022-12-25T03:05:22.154Z,86.56
2022-12-25T03:08:29.294Z,86.42
2022-12-25T03:11:34.088Z,86.60
2022-12-25T03:14:55.822Z,86.55
2022-12-25T03:18:01.932Z,86.63
2022-12-25T03:21:24.307Z,86.62
2022-12-25T03:24:46.339Z,86.49
2022-12-25T03:27:54.117Z,86.59
2022-12-25T03:31:15.209Z,86.60
2022-12-25T03:34:56.650Z,86.83
2022-12-25T03:38:22.011Z,86.59
2022-12-25T03:41:48.304Z,86.77
2022-12-25T03:45:20.883Z,86.83
2022-12-25T03:48:43.842Z,87.32
2022-12-25T03:52:07.209Z,87.32
2022-12-25T03:55:30.801Z,87.37
2022-12-25T03:58:52.503Z,87.18
2022-12-25T04:02:14.532Z,87.40
2022-12-25T04:05:36.502Z,87.54
2022-12-25T04:08:58.512Z,87.49
2022-12-25T04:12:20.484Z,87.25
2022-12-25T04:15:42.512Z,87.17
2022-12-25T04:19:01.455Z,87.15
2022-12-25T04:22:23.485Z,87.25
2022-12-25T04:25:45.623Z,87.33
2022-12-25T04:29:18.739Z,87.45
2022-12-25T04:32:40.867Z,87.31
2022-12-25T04:36:06.320Z,87.19
2022-12-25T04:39:11.798Z,87.20
2022-12-25T04:42:16.621Z,87.29
2022-12-25T04:45:21.585Z,87.22
2022-12-25T04:48:26.641Z,87.16
2022-12-25T04:51:31.156Z,87.08
2022-12-25T04:54:35.678Z,87.02
2022-12-25T04:57:40.282Z,86.77
2022-12-25T05:00:44.855Z,86.79
2022-12-25T05:03:49.363Z,87.08
2022-12-25T05:06:53.864Z,87.07
2022-12-25T05:09:58.451Z,87.01
2022-12-25T05:13:03.143Z,87.09
2022-12-25T05:16:08.883Z,87.06
2022-12-25T05:19:13.512Z,87.10
2022-12-25T05:22:18.249Z,87.19
2022-12-25T05:25:22.795Z,87.19
2022-12-25T05:28:27.269Z,87.22
2022-12-25T05:31:31.920Z,86.94
2022-12-25T05:34:36.439Z,86.83
2022-12-25T05:37:40.952Z,86.98
2022-12-25T05:40:45.523Z,86.92
2022-12-25T05:43:49.995Z,86.72
2022-12-25T05:46:54.486Z,86.85
2022-12-25T05:49:58.974Z,86.95
2022-12-25T05:53:08.293Z,87.13
2022-12-25T05:56:13.558Z,87.02
2022-12-25T05:59:18.094Z,86.95
2022-12-25T06:02:22.744Z,86.88
2022-12-25T06:05:27.774Z,86.99
2022-12-25T06:08:32.281Z,87.03
2022-12-25T06:11:36.784Z,86.90
2022-12-25T06:14:41.427Z,87.05
2022-12-25T06:17:45.951Z,87.24
2022-12-25T06:20:50.503Z,87.56
2022-12-25T06:23:55.146Z,87.14
2022-12-25T06:26:59.719Z,87.10
2022-12-25T06:30:04.282Z,87.02
2022-12-25T06:33:08.805Z,87.25
2022-12-25T06:36:14.407Z,87.13
2022-12-25T06:39:19.128Z,87.26
2022-12-25T06:42:23.690Z,87.64
2022-12-25T06:45:28.287Z,87.93
2022-12-25T06:48:33.318Z,87.68
2022-12-25T06:51:37.932Z,87.42
2022-12-25T06:54:42.526Z,87.70
2022-12-25T06:57:47.213Z,87.53
2022-12-25T07:00:51.942Z,87.23
2022-12-25T07:03:57.810Z,87.27
2022-12-25T07:07:08.394Z,87.05
2022-12-25T07:10:13.687Z,86.94
2022-12-25T07:13:18.178Z,87.26
2022-12-25T07:16:22.710Z,87.40
2022-12-25T07:19:27.294Z,87.40
2022-12-25T07:22:32.047Z,87.50
2022-12-25T07:25:37.627Z,87.39
2022-12-25T07:28:42.185Z,87.35
2022-12-25T07:31:46.798Z,87.47
2022-12-25T07:34:51.399Z,87.38
2022-12-25T07:37:55.882Z,87.22
2022-12-25T07:41:03.231Z,87.41
2022-12-25T07:44:07.824Z,87.60
2022-12-25T07:47:12.371Z,87.50
2022-12-25T07:50:16.911Z,87.50
2022-12-25T07:53:21.395Z,87.39
2022-12-25T07:56:25.944Z,87.64
2022-12-25T07:59:30.453Z,87.49
2022-12-25T08:02:35.157Z,87.40
2022-12-25T08:05:39.836Z,87.49
2022-12-25T08:08:44.304Z,87.68
2022-12-25T08:11:49.136Z,87.69
2022-12-25T08:14:53.551Z,87.77
2022-12-25T08:17:58.112Z,87.74
2022-12-25T08:21:05.320Z,87.84
2022-12-25T08:24:11.011Z,87.79
2022-12-25T08:27:15.460Z,87.92
2022-12-25T08:30:20.271Z,87.81
2022-12-25T08:33:24.707Z,87.65
2022-12-25T08:36:29.572Z,87.92
2022-12-25T08:39:34.192Z,87.99
2022-12-25T08:42:39.046Z,87.95
2022-12-25T08:45:44.224Z,88.01
2022-12-25T08:48:49.590Z,88.01
2022-12-25T08:51:54.170Z,87.97
2022-12-25T08:54:58.784Z,88.26
2022-12-25T08:58:03.294Z,88.02
2022-12-25T09:01:09.097Z,87.96
2022-12-25T09:04:13.642Z,87.97
2022-12-25T09:07:18.135Z,88.08
2022-12-25T09:10:23.249Z,87.96
2022-12-25T09:13:27.744Z,87.90
2022-12-25T09:16:33.088Z,87.88
2022-12-25T09:19:37.644Z,88.08
2022-12-25T09:22:42.259Z,88.00
2022-12-25T09:25:46.744Z,87.89
2022-12-25T09:28:52.722Z,88.13
2022-12-25T09:31:57.497Z,88.06
2022-12-25T09:35:01.964Z,88.26
2022-12-25T09:38:06.555Z,88.34
2022-12-25T09:41:21.448Z,88.29
2022-12-25T09:44:27.142Z,88.42
2022-12-25T09:47:33.621Z,88.62
2022-12-25T09:50:42.850Z,88.68
2022-12-25T09:53:51.566Z,88.78
2022-12-25T09:56:56.217Z,88.86
2022-12-25T10:00:01.075Z,88.86
2022-12-25T10:03:15.429Z,88.90
2022-12-25T10:06:22.232Z,89.03
2022-12-25T10:09:41.551Z,89.03
2022-12-25T10:12:53.917Z,89.02
2022-12-25T10:16:05.714Z,88.90
2022-12-25T10:19:23.014Z,88.80
2022-12-25T10:22:31.415Z,88.75
2022-12-25T10:25:38.378Z,88.64
2022-12-25T10:28:44.060Z,88.39
2022-12-25T10:31:49.699Z,88.30
2022-12-25T10:34:54.522Z,88.15
2022-12-25T10:38:00.921Z,88.26
2022-12-25T10:41:12.327Z,88.13
2022-12-25T10:44:20.441Z,87.81
2022-12-25T10:47:26.755Z,87.89
2022-12-25T10:50:33.826Z,87.81
2022-12-25T10:53:41.110Z,87.82
2022-12-25T10:56:54.746Z,87.72
2022-12-25T10:59:59.292Z,87.80
2022-12-25T11:03:04.646Z,87.61
2022-12-25T11:06:21.567Z,87.56
2022-12-25T11:09:26.142Z,87.48
2022-12-25T11:12:32.779Z,87.38
2022-12-25T11:15:39.181Z,87.30
2022-12-25T11:18:48.800Z,87.33
2022-12-25T11:21:54.353Z,87.20
2022-12-25T11:24:58.845Z,87.09
2022-12-25T11:28:04.165Z,86.99
2022-12-25T11:31:09.793Z,87.02
2022-12-25T11:34:18.634Z,87.07
2022-12-25T11:37:25.789Z,86.88
2022-12-25T11:40:36.006Z,86.67
2022-12-25T11:43:42.250Z,86.58
2022-12-25T11:46:52.291Z,86.50
2022-12-25T11:50:00.963Z,86.38
2022-12-25T11:53:07.457Z,86.23
2022-12-25T11:56:15.122Z,86.32
2022-12-25T11:59:21.675Z,86.37
2022-12-25T12:02:29.700Z,86.13
2022-12-25T12:05:36.500Z,86.16
2022-12-25T12:10:34.974Z,85.98
2022-12-25T12:13:56.103Z,86.04
2022-12-25T12:17:02.897Z,85.91
2022-12-25T12:20:28.148Z,85.85
2022-12-25T12:23:38.168Z,85.88
2022-12-25T12:26:46.307Z,85.75
2022-12-25T12:29:55.432Z,85.55
2022-12-25T12:33:03.320Z,85.40
2022-12-25T12:36:12.717Z,85.11
2022-12-25T12:39:27.256Z,84.98
2022-12-25T12:42:38.953Z,85.11
2022-12-25T12:45:44.926Z,85.02
2022-12-25T12:48:53.601Z,84.97
2022-12-25T12:52:26.670Z,84.73
2022-12-25T12:55:34.933Z,84.75
2022-12-25T12:58:50.141Z,84.67
2022-12-25T13:02:07.204Z,84.44
2022-12-25T13:05:21.117Z,84.42
2022-12-25T13:08:43.636Z,84.14
2022-12-25T13:11:50.526Z,83.96
2022-12-25T13:14:57.115Z,83.97
2022-12-25T13:18:08.299Z,83.83
2022-12-25T13:21:23.461Z,83.64
2022-12-25T13:24:32.230Z,83.59
2022-12-25T13:27:38.561Z,83.39
2022-12-25T13:30:47.202Z,83.36
2022-12-25T13:33:58.009Z,83.24
2022-12-25T13:37:11.364Z,83.23
2022-12-25T13:40:29.361Z,83.11
2022-12-25T13:43:35.600Z,82.91
2022-12-25T13:46:40.144Z,82.81
2022-12-25T13:49:46.971Z,82.57
2022-12-25T13:52:54.176Z,82.62
2022-12-25T13:56:01.466Z,82.64
2022-12-25T13:59:07.834Z,82.58
2022-12-25T14:02:21.563Z,82.49
2022-12-25T14:05:34.745Z,82.36
2022-12-25T14:08:46.397Z,82.09
2022-12-25T14:11:55.152Z,82.06
2022-12-25T14:15:02.275Z,81.87
2022-12-25T14:18:15.594Z,81.70
2022-12-25T14:21:28.827Z,81.86
2022-12-25T14:24:36.101Z,81.80
2022-12-25T14:27:42.356Z,81.78
2022-12-25T14:30:46.996Z,81.67
2022-12-25T14:33:54.207Z,81.64
2022-12-25T14:37:01.197Z,81.52
2022-12-25T14:40:21.704Z,81.62
2022-12-25T14:43:30.723Z,81.62
2022-12-25T14:46:37.426Z,81.25
2022-12-25T14:49:44.180Z,81.26
2022-12-25T14:52:50.524Z,81.13
2022-12-25T14:55:56.277Z,81.40
2022-12-25T14:59:04.039Z,81.34
2022-12-25T15:02:20.437Z,81.47
2022-12-25T15:05:33.137Z,81.34
2022-12-25T15:08:41.243Z,80.95
2022-12-25T15:11:50.898Z,80.68
2022-12-25T15:14:57.086Z,80.68
2022-12-25T15:18:05.277Z,80.71
2022-12-25T15:21:16.726Z,80.79
2022-12-25T15:24:23.014Z,80.84
2022-12-25T15:27:27.596Z,80.98
2022-12-25T15:30:35.585Z,80.72
2022-12-25T15:33:44.256Z,80.88
2022-12-25T15:36:52.682Z,80.76
2022-12-25T15:39:59.606Z,80.53
2022-12-25T15:43:11.553Z,80.72
2022-12-25T15:46:28.868Z,80.82
2022-12-25T15:49:33.476Z,80.76
2022-12-25T15:52:39.843Z,80.63
2022-12-25T15:55:44.323Z,80.59
2022-12-25T15:58:50.857Z,80.55
2022-12-25T16:01:58.836Z,80.37
2022-12-25T16:05:10.292Z,80.58
2022-12-25T16:08:17.032Z,80.61
2022-12-25T16:11:21.634Z,80.67
2022-12-25T16:14:27.679Z,80.76
2022-12-25T16:17:33.887Z,80.36
2022-12-25T16:20:40.103Z,80.31
2022-12-25T16:23:46.643Z,80.42
2022-12-25T16:26:52.930Z,80.45
2022-12-25T16:29:57.578Z,80.25
2022-12-25T16:33:03.858Z,80.17
2022-12-25T16:36:09.233Z,80.10
2022-12-25T16:39:15.364Z,80.43
2022-12-25T16:42:21.595Z,80.23
2022-12-25T16:45:28.010Z,80.33
2022-12-25T16:48:34.208Z,80.68
2022-12-25T16:51:40.336Z,80.63
2022-12-25T16:54:48.082Z,80.63
2022-12-25T16:57:54.366Z,80.52
2022-12-25T17:01:05.333Z,80.58
2022-12-25T17:04:11.710Z,80.39
2022-12-25T17:07:18.981Z,80.41
2022-12-25T17:10:25.277Z,80.50
2022-12-25T17:13:29.820Z,80.43
2022-12-25T17:16:38.512Z,80.58
2022-12-25T17:19:44.811Z,81.07
2022-12-25T17:22:52.927Z,80.97
2022-12-25T17:26:03.208Z,80.91
2022-12-25T17:29:09.735Z,80.81
2022-12-25T17:32:15.911Z,80.75
2022-12-25T17:35:23.539Z,80.69
2022-12-25T17:38:29.869Z,80.60
2022-12-25T17:41:34.475Z,80.76
2022-12-25T17:44:40.727Z,80.92
2022-12-25T17:47:47.006Z,80.89
2022-12-25T17:50:51.561Z,80.86
2022-12-25T17:54:00.298Z,80.46
2022-12-25T17:57:06.523Z,80.38
2022-12-25T18:00:14.395Z,80.57
2022-12-25T18:03:21.408Z,80.56
2022-12-25T18:06:29.690Z,80.77
2022-12-25T18:09:35.927Z,80.58
2022-12-25T18:12:44.132Z,80.70
2022-12-25T18:15:50.420Z,80.71
2022-12-25T18:18:55.030Z,80.46
2022-12-25T18:22:01.554Z,80.61
2022-12-25T18:25:09.045Z,80.85
2022-12-25T18:28:15.690Z,81.10
2022-12-25T18:31:24.616Z,80.98
2022-12-25T18:34:30.808Z,81.06
2022-12-25T18:37:40.223Z,81.05
2022-12-25T18:40:48.869Z,81.03
2022-12-25T18:43:55.996Z,80.96
2022-12-25T18:47:02.576Z,80.86
2022-12-25T18:50:08.437Z,80.79
2022-12-25T18:53:14.754Z,80.93
2022-12-25T18:56:19.468Z,81.04
2022-12-25T18:59:25.667Z,80.94
2022-12-25T19:02:32.288Z,80.91
2022-12-25T19:05:41.505Z,80.80
2022-12-25T19:08:47.835Z,81.23
2022-12-25T19:11:53.762Z,81.09
2022-12-25T19:14:58.227Z,81.19
2022-12-25T19:18:04.661Z,81.27
2022-12-25T19:21:11.761Z,81.46
2022-12-25T19:24:17.960Z,81.49
2022-12-25T19:27:24.301Z,81.62
2022-12-25T19:30:28.839Z,81.64
2022-12-25T19:33:36.177Z,81.43
2022-12-25T19:36:42.541Z,81.28
2022-12-25T19:39:47.246Z,81.33
2022-12-25T19:42:53.519Z,81.31
2022-12-25T19:46:00.003Z,81.49
2022-12-25T19:49:07.839Z,81.37
2022-12-25T19:52:15.253Z,81.40
2022-12-25T19:55:22.153Z,81.53
2022-12-25T19:58:28.456Z,81.63
2022-12-25T20:01:33.454Z,81.61
2022-12-25T20:04:39.773Z,81.90
2022-12-25T20:07:46.011Z,81.80
2022-12-25T20:10:52.741Z,81.58
2022-12-25T20:13:59.174Z,81.49
2022-12-25T20:17:07.306Z,81.69
2022-12-25T20:20:17.561Z,81.68
2022-12-25T20:23:24.002Z,81.70
2022-12-25T20:26:32.233Z,81.41
2022-12-25T20:29:39.797Z,81.58
2022-12-25T20:32:50.432Z,81.95
2022-12-25T20:36:00.165Z,82.07
2022-12-25T20:39:09.849Z,81.99
2022-12-25T20:42:16.438Z,82.10
2022-12-25T20:45:22.723Z,81.86
2022-12-25T20:48:27.227Z,82.12
2022-12-25T20:51:33.464Z,82.28
2022-12-25T20:54:40.182Z,82.36
2022-12-25T20:57:46.461Z,82.18
2022-12-25T21:00:51.248Z,82.15
2022-12-25T21:03:57.909Z,82.09
2022-12-25T21:07:05.259Z,82.11
2022-12-25T21:10:13.069Z,82.16
2022-12-25T21:13:20.119Z,82.16
2022-12-25T21:16:27.360Z,82.07
2022-12-25T21:19:33.691Z,82.19
2022-12-25T21:22:38.251Z,82.11
2022-12-25T21:25:44.593Z,82.36
2022-12-25T21:28:49.747Z,82.61
2022-12-25T21:32:28.017Z,82.63
2022-12-25T21:35:36.683Z,82.50
2022-12-25T21:38:42.887Z,82.53
2022-12-25T21:41:49.229Z,82.68
2022-12-25T21:44:53.688Z,82.70
2022-12-25T21:48:03.028Z,82.80
2022-12-25T21:51:32.268Z,82.93
2022-12-25T21:54:38.705Z,82.83
2022-12-25T21:57:45.026Z,83.17
2022-12-25T22:00:49.493Z,82.81
2022-12-25T22:03:55.722Z,82.83
2022-12-25T22:07:20.075Z,82.70
2022-12-25T22:10:26.380Z,82.74
2022-12-25T22:13:48.369Z,82.73
2022-12-25T22:17:11.963Z,82.85
2022-12-25T22:20:20.064Z,82.96
2022-12-25T22:23:26.317Z,82.88
2022-12-25T22:26:32.598Z,82.88
2022-12-25T22:29:37.458Z,82.85
2022-12-25T22:32:43.742Z,82.90
2022-12-25T22:35:48.243Z,82.91
2022-12-25T22:38:54.516Z,83.07
2022-12-25T22:42:02.405Z,83.02
2022-12-25T22:45:10.340Z,83.36
2022-12-25T22:48:16.700Z,83.69
2022-12-25T22:51:21.192Z,83.27
2022-12-25T22:54:29.964Z,83.28
2022-12-25T22:57:36.294Z,83.44
2022-12-25T23:00:46.264Z,83.61
2022-12-25T23:03:56.183Z,83.46
2022-12-25T23:07:02.280Z,83.60
2022-12-25T23:10:10.830Z,83.57
2022-12-25T23:13:35.118Z,83.83
2022-12-25T23:16:41.292Z,83.78
2022-12-25T23:20:05.329Z,84.01
2022-12-25T23:23:33.183Z,84.03
2022-12-25T23:26:39.304Z,84.04
2022-12-25T23:29:45.635Z,83.99
2022-12-25T23:32:50.092Z,83.88
2022-12-25T23:35:56.360Z,84.12
2022-12-25T23:39:08.578Z,84.03
2022-12-25T23:42:16.310Z,83.99
2022-12-25T23:45:20.865Z,84.17
2022-12-25T23:48:27.243Z,84.42
2022-12-25T23:51:31.853Z,84.35
2022-12-25T23:54:38.287Z,84.51
2022-12-25T23:57:44.627Z,84.49
